ADDS METAR Data INFO
IDs: Format: Raw Decoded Include TAF

Data at: 2112 UTC 19 Jul 2018

KBKV 192053Z 24004KT 10SM SCT016 BKN023 BKN031 28/25 A2996 RMK AO2 SLP142 60000 T02780250 58011
KBKV 191953Z 00000KT 10SM FEW025 28/24 A2997 RMK AO2 RAB14E29 SLP147 P0000 T02780244
KBKV 191915Z 33004KT 9SM -RA SCT017 BKN035 BKN050 27/24 A2998 RMK AO2 LTG DSNT NE RAB14 P0000 T02720239
KBKV 191853Z 04005KT 10SM FEW016 SCT023 BKN028 27/24 A2998 RMK AO2 LTG DSNT NE RAB1758E07 SLP151 P0000 T02720239
KBKV 191837Z 32004KT 10SM VCTS FEW016 SCT023 BKN030 27/24 A2999 RMK AO2 LTG DSNT NE RAB1758E07 P0000 T02720239
KBKV 191819Z 28007G17KT 260V330 10SM VCTS FEW018 BKN029 BKN041 27/23 A2998 RMK AO2 RAB1758E07 P0000 T02720233
KBKV 191753Z 21011KT 10SM FEW029 FEW039 29/25 A2999 RMK AO2 LTG DSNT NW SLP153 T02890250 10306 20256 58009
KBKV 191700Z 18010KT 10SM FEW023 SCT030 BKN036 28/24 A3002 RMK AO2 LTG DSNT SE T02780244
KBKV 191653Z 18009KT 10SM FEW024 BKN028 BKN037 28/25 A3002 RMK AO2 LTG DSNT SE SLP162 T02780250
KBKV 191553Z 15007KT 10SM SCT033 BKN042 28/24 A3002 RMK AO2 LTG DSNT ALQDS TSB1459E14 SLP162 T02780244
KBKV 191548Z 16008KT 10SM SCT033 BKN042 28/24 A3002 RMK AO2 LTG DSNT E AND SE AND NW TSB1459E14
KBKV 191520Z 16010KT 10SM VCTS FEW036 FEW046 28/24 A3002 RMK AO2 LTG DSNT E AND SE TSB1459E14 T02830244
KBKV 191459Z 23010KT 10SM TS FEW031 30/24 A3000 RMK AO2 LTG DSNT SE AND S TSB59 T03000239
KBKV 191453Z 25009KT 10SM FEW029 31/24 A3000 RMK AO2 LTG DSNT SE AND S SLP156 T03060244 50005
KBKV 191353Z 21009KT 10SM CLR 29/25 A3000 RMK AO2 SLP158 T02940250
KBKV 191253Z 17005KT 10SM CLR 28/26 A2999 RMK AO2 LTG DSNT N SLP154 T02780256
KBKV 191153Z 18004KT 10SM CLR 26/24 A2998 RMK AO2 LTG DSNT N AND NW SLP151 60009 70022 T02560244 10256 20239 53006
KBKV 191053Z 16004KT 10SM FEW023 FEW035 SCT070 24/24 A2998 RMK AO2 RAB28E42 SLP149 P0009 T02440239
KBKV 191044Z 16006KT 10SM SCT027 SCT038 SCT070 24/24 A2998 RMK AO2 RAB28E42 P0008 T02440239
KBKV 191037Z AUTO 17006KT 2 1/2SM -RA BR SCT023 BKN035 BKN070 25/24 A2997 RMK AO2 RAB28 P0008 T02500239
KBKV 190953Z AUTO 16005KT 10SM CLR 24/24 A2997 RMK AO2 SLP145 T02440239
KBKV 190853Z AUTO 17003KT 10SM CLR 24/24 A2997 RMK AO2 SLP145 T02440239 55009
KBKV 190753Z AUTO 18004KT 10SM CLR 24/24 A2996 RMK AO2 SLP144 T02390239
KBKV 190653Z AUTO 15004KT 9SM CLR 24/23 A2997 RMK AO2 SLP146 T02440233
KBKV 190553Z AUTO 17003KT 10SM CLR 24/24 A2999 RMK AO2 SLP154 60004 T02440239 10272 20244 58000
KBKV 190453Z AUTO 16004KT 10SM CLR 24/24 A3000 RMK AO2 SLP156 T02440239 403000244
KBKV 190353Z AUTO 16004KT 10SM CLR 25/24 A3001 RMK AO2 SLP159 T02500239
KBKV 190253Z AUTO 18003KT 10SM CLR 25/24 A2999 RMK AO2 SLP154 60004 T02500239 53006
KBKV 190153Z AUTO 18005KT 10SM FEW023 SCT060 SCT075 25/24 A2998 RMK AO2 RAE02B36E52 SLP151 P0000 T02500244
KBKV 190120Z 18005KT 10SM SCT023 SCT041 BKN100 26/24 A2998 RMK AO2 LTG DSNT SE RAE02 P0000 T02560244
KBKV 190105Z 17005KT 10SM VCTS SCT026 BKN041 OVC100 26/24 A2998 RMK AO2 LTG DSNT S RAE02 P0000 T02610239
KBKV 190053Z 16004KT 6SM -RA BR FEW028 SCT041 BKN095 26/24 A2998 RMK AO2 LTG DSNT S RAB41 SLP150 P0004 T02610239
KBKV 182353Z 17004KT 10SM FEW027 27/25 A2998 RMK AO2 SLP148 60002 T02720250 10283 20256 55009
KBKV 182253Z 19006KT 10SM CLR 28/24 A2997 RMK AO2 SLP147 T02830244
KBKV 182215Z 22007KT 10SM FEW033 FEW041 28/24 A2998 RMK AO2 T02780244
KBKV 182200Z 20006KT 10SM VCTS CLR 28/26 A2999 RMK AO2 T02780261
KBKV 182153Z 19005KT 10SM CLR 28/26 A2999 RMK AO2 LTG DSNT S SLP154 T02780256
KBKV 182053Z 14003KT 10SM FEW050 FEW070 SCT110 26/25 A3000 RMK AO2 LTG DSNT SE AND S RAB18E42 TSB30E45 SLP157 P0002 60002 T02610250 56011
KBKV 182051Z 14003KT 10SM FEW027 SCT070 SCT100 26/25 A3000 RMK AO2 LTG DSNT SE AND S RAB18E42 TSB30E45 P0002
KBKV 182036Z 16004KT 6SM -TSRA BR FEW010 BKN055 OVC110 26/25 A3001 RMK AO2 LTG DSNT S RAB18 TSB30 P0002 T02610250
KBKV 182023Z 00000KT 10SM VCTS -RA FEW011 SCT030 BKN075 27/24 A3002 RMK AO2 LTG DSNT SE AND S RAB18 P0000 T02670244
KBKV 182013Z 34005KT 10SM VCTS FEW009 BKN029 27/24 A3002 RMK AO2 LTG DSNT N AND SE T02670244
KBKV 181953Z 14004KT 10SM VCTS CLR 26/24 A3002 RMK AO2 LTG DSNT ALQDS SLP163 T02610244
KBKV 181905Z 14005KT 10SM VCTS CLR 26/24 A3003 RMK AO2 LTG DSNT ALQDS T02610244
KBKV 181853Z 15005KT 10SM FEW027 26/24 A3003 RMK AO2 LTG DSNT SE AND S RAB1757E23 SLP168 P0000 T02610244
KBKV 181828Z 00000KT 10SM FEW032 SCT046 26/24 A3004 RMK AO2 LTG DSNT SE AND S RAB1757E23 P0000 T02560244
KBKV 181813Z 00000KT 10SM VCTS -RA SCT032 BKN048 OVC110 26/24 A3004 RMK AO2 LTG DSNT NE-S RAB1757 P0000 T02610244
KBKV 181753Z 00000KT 10SM FEW045 SCT070 BKN090 26/24 A3004 RMK AO2 LTG DSNT ALQDS RAB1655E14B35E46 TSE15B21E36 SLP170 P0005 60007 T02560239 10300 20256 58005
KBKV 181740Z 24004KT 5SM RA BR FEW039 SCT050 SCT110 26/23 A3005 RMK AO2 LTG DSNT E-S RAB1655E14B35 TSE15B21E36 P0005 T02560233
KBKV 181653Z 26008KT 9SM TS FEW027 FEW032 SCT039 27/24 A3006 RMK AO2 LTG DSNT NE-S RAB11E27 TSB1558E21B48 SLP177 P0002 T02670239
KBKV 181627Z 31003KT 10SM VCTS SCT031 BKN047 BKN070 26/24 A3004 RMK AO2 LTG DSNT ALQDS RAB11E27 TSB1558E21 P0002 T02610239
KBKV 181608Z 33009KT 10SM TS BKN033 BKN045 27/24 A3005 RMK AO2 LTG DSNT NE AND S TSB1558 T02670239
KBKV 181558Z 33012G18KT 10SM TS BKN029 BKN037 OVC049 28/24 A3005 RMK AO2 LTG DSNT ALQDS TSB58 T02780239
KBKV 181553Z 28007KT 10SM VCTS SCT029 BKN037 BKN046 29/24 A3005 RMK AO2 LTG DSNT N AND S AND SW RAB41E52 SLP175 P0000 T02940244
KBKV 181549Z 26006KT 10SM VCTS -RA SCT029 BKN035 BKN049 29/24 A3006 RMK AO2 LTG DSNT ALQDS RAB41 P0000
KBKV 181535Z 23004KT 10SM VCTS BKN028 BKN039 BKN090 29/24 A3005 RMK AO2 LTG DSNT NW-NE T02890244
KBKV 181453Z 20008KT 10SM CLR 30/25 A3005 RMK AO2 LTG DSNT W-NE SLP174 60000 T03000250 50001
KBKV 181353Z 20009KT 10SM CLR 27/23 A3005 RMK AO2 LTG DSNT NW-E SLP174 T02670233
KBKV 181253Z 20009KT 10SM CLR 28/26 A3006 RMK AO2 LTG DSNT S RAE03 SLP175 P0000 T02780256
KBKV 181153Z 14003KT 10SM -RA BKN048 BKN070 BKN080 26/24 A3005 RMK AO2 RAB27 SLP173 P0000 60000 70013 T02560244 10256 20244 53008
KBKV 181122Z 27004KT 9SM FEW008 SCT026 BKN110 25/24 A3004 RMK AO2 T02500244
KBKV 181119Z 26005KT 8SM FEW010 BKN026 BKN040 25/24 A3005 RMK AO2 LTG DSNT N T02500244
KBKV 181053Z 00000KT 8SM SCT027 24/24 A3004 RMK AO2 LTG DSNT SW SLP169 T02440239
KBKV 180953Z AUTO 14003KT 10SM CLR 24/24 A3003 RMK AO2 SLP166 T02440239